Time;durP1;ratioP1;P1;durP2;ratioP2;P2;SDS_P1;SDS_P2;PMS_P1;PMS_P2;Temp;Humidity;BMP_temperature;BMP_pressure;BME280_temperature;BME280_humidity;BME280_pressure;Samples;Min_cycle;Max_cycle;Signal;HPM_P1;HPM_P2
2023/01/27 00:00:38;;;;;;;2.97;1.70;;;4.40;99.90;;;;;;5024075;28;20034;-77
2023/01/27 00:03:04;;;;;;;4.10;1.55;;;4.40;99.90;;;;;;5040943;28;20491;-77
2023/01/27 00:05:30;;;;;;;2.67;1.55;;;4.40;99.90;;;;;;5013968;28;20037;-79
2023/01/27 00:07:57;;;;;;;4.15;1.65;;;4.40;99.90;;;;;;5008443;28;20037;-78
2023/01/27 00:10:23;;;;;;;3.17;1.88;;;4.40;99.90;;;;;;5028884;28;20103;-81
2023/01/27 00:15:34;;;;;;;4.20;1.80;;;4.40;99.90;;;;;;5024614;28;20112;-80
2023/01/27 00:18:00;;;;;;;3.28;1.80;;;4.40;99.90;;;;;;5026435;28;20033;-78
2023/01/27 00:26:05;;;;;;;4.03;1.90;;;4.30;99.90;;;;;;5027595;28;20049;-81
2023/01/27 00:28:41;;;;;;;4.18;1.90;;;4.40;99.90;;;;;;5011211;28;20040;-80
2023/01/27 00:34:00;;;;;;;7.55;2.28;;;4.40;99.90;;;;;;5027465;28;20489;-81
2023/01/27 00:36:30;;;;;;;4.20;2.60;;;4.40;99.90;;;;;;5013016;28;20120;-79
2023/01/27 00:38:56;;;;;;;4.47;2.67;;;4.40;99.90;;;;;;5042847;28;20108;-76
2023/01/27 00:41:22;;;;;;;5.43;2.75;;;4.40;99.90;;;;;;5009173;28;20113;-79
2023/01/27 00:43:52;;;;;;;2.92;2.10;;;4.40;99.90;;;;;;5028896;28;20030;-76
2023/01/27 00:46:19;;;;;;;4.70;2.57;;;4.30;99.90;;;;;;5010098;28;20059;-80
2023/01/27 00:48:46;;;;;;;7.32;2.58;;;4.40;99.90;;;;;;5031193;28;20037;-77
2023/01/27 00:51:12;;;;;;;4.47;2.20;;;4.40;99.90;;;;;;5010970;28;20030;-76
2023/01/27 00:53:40;;;;;;;4.10;2.45;;;4.40;99.90;;;;;;5025856;28;20029;-76
2023/01/27 00:56:07;;;;;;;4.43;2.20;;;4.40;99.90;;;;;;5024736;28;20113;-76
2023/01/27 00:58:33;;;;;;;4.80;2.40;;;4.40;99.90;;;;;;5030231;28;20022;-77
2023/01/27 01:01:01;;;;;;;6.97;2.28;;;4.40;99.90;;;;;;5053248;28;20049;-76
2023/01/27 01:03:31;;;;;;;4.95;2.20;;;4.40;99.90;;;;;;5015032;28;20442;-79
2023/01/27 01:05:58;;;;;;;4.07;2.00;;;4.40;99.90;;;;;;5045415;28;20029;-76
2023/01/27 01:08:26;;;;;;;3.78;2.40;;;4.40;99.90;;;;;;5030193;28;20060;-75
2023/01/27 01:10:52;;;;;;;4.90;2.50;;;4.40;99.90;;;;;;5029169;28;20025;-76
2023/01/27 01:13:18;;;;;;;5.80;2.90;;;4.40;99.90;;;;;;5010968;28;20037;-75
2023/01/27 01:15:44;;;;;;;3.53;2.38;;;4.40;99.90;;;;;;5010692;28;20025;-76
2023/01/27 01:18:10;;;;;;;5.03;2.50;;;4.40;99.90;;;;;;5029672;28;20194;-78
2023/01/27 01:20:41;;;;;;;4.03;2.63;;;4.40;99.90;;;;;;5031026;28;20523;-76
2023/01/27 01:23:08;;;;;;;4.97;2.95;;;4.40;99.90;;;;;;5030397;28;20038;-76
2023/01/27 01:25:34;;;;;;;4.38;2.70;;;4.40;99.90;;;;;;5009832;28;20030;-77
2023/01/27 01:28:01;;;;;;;4.65;2.65;;;4.40;99.90;;;;;;5012079;28;20113;-77
2023/01/27 01:30:27;;;;;;;4.70;2.47;;;4.40;99.90;;;;;;5042367;28;20025;-77
2023/01/27 01:32:54;;;;;;;5.10;2.65;;;4.40;99.90;;;;;;5015108;28;20041;-78
2023/01/27 01:35:21;;;;;;;4.70;2.80;;;4.50;99.90;;;;;;5014230;28;20030;-77
2023/01/27 01:37:46;;;;;;;4.55;2.65;;;4.50;99.90;;;;;;5031448;28;20037;-76
2023/01/27 01:40:13;;;;;;;5.53;2.97;;;4.50;99.90;;;;;;5029203;28;20029;-77
2023/01/27 01:43:10;;;;;;;6.70;2.92;;;4.50;99.90;;;;;;5014506;28;20024;-78
2023/01/27 01:45:45;;;;;;;4.55;3.08;;;4.50;99.90;;;;;;5027923;28;20041;-77
2023/01/27 01:48:30;;;;;;;5.03;2.97;;;4.50;99.90;;;;;;5011500;28;20041;-78
2023/01/27 01:51:12;;;;;;;6.13;2.85;;;4.40;99.90;;;;;;5043814;28;20072;-77
2023/01/27 01:53:55;;;;;;;6.20;3.15;;;4.50;99.90;;;;;;5008278;28;20571;-77
2023/01/27 01:56:26;;;;;;;6.78;3.13;;;4.50;99.90;;;;;;5012380;28;20115;-76
2023/01/27 01:58:54;;;;;;;5.13;3.25;;;4.40;99.90;;;;;;5011450;28;20685;-76
2023/01/27 02:01:20;;;;;;;4.85;2.85;;;4.40;99.90;;;;;;5028144;28;20693;-76
2023/01/27 02:03:51;;;;;;;4.70;3.30;;;4.40;99.90;;;;;;5009237;28;20032;-77
2023/01/27 02:06:16;;;;;;;;;;;4.40;99.90;;;;;;5013073;28;20077;-76
2023/01/27 02:08:45;;;;;;;7.38;3.33;;;4.40;99.90;;;;;;5041541;28;19919;-78
2023/01/27 02:11:11;;;;;;;6.68;3.38;;;4.40;99.90;;;;;;5039309;28;20033;-76
2023/01/27 02:13:38;;;;;;;5.43;3.53;;;4.40;99.90;;;;;;5008118;28;20029;-76
2023/01/27 02:16:05;;;;;;;5.45;3.38;;;4.40;99.90;;;;;;4991329;28;20043;-77
2023/01/27 02:18:31;;;;;;;5.03;3.50;;;4.40;99.90;;;;;;5029812;28;20152;-77
2023/01/27 02:20:57;;;;;;;5.07;3.72;;;4.40;99.90;;;;;;5029332;28;20025;-76
2023/01/27 02:23:38;;;;;;;5.80;3.60;;;4.40;99.90;;;;;;5011147;28;20130;-76
2023/01/27 02:26:25;;;;;;;6.85;3.60;;;4.30;99.90;;;;;;5041872;28;20112;-81
2023/01/27 02:28:55;;;;;;;5.18;3.40;;;4.30;99.90;;;;;;5008985;28;20044;-77
2023/01/27 02:31:21;;;;;;;4.18;3.33;;;4.30;99.90;;;;;;5043281;28;20055;-77
2023/01/27 02:33:48;;;;;;;7.30;3.47;;;4.30;99.90;;;;;;5007559;28;20034;-77
2023/01/27 02:36:16;;;;;;;5.20;3.10;;;4.30;99.90;;;;;;5027621;28;20358;-78
2023/01/27 02:38:46;;;;;;;5.25;3.58;;;4.30;99.90;;;;;;5016087;28;20109;-77
2023/01/27 02:41:22;;;;;;;6.05;3.85;;;4.30;99.90;;;;;;5009452;28;20397;-79
2023/01/27 02:43:49;;;;;;;6.80;3.55;;;4.30;99.90;;;;;;4991586;28;20038;-76
2023/01/27 02:46:15;;;;;;;4.32;3.10;;;4.30;99.90;;;;;;5011594;28;20029;-78
2023/01/27 02:48:41;;;;;;;6.50;3.33;;;4.30;99.90;;;;;;5027865;28;20042;-78
2023/01/27 02:51:06;;;;;;;4.90;3.53;;;4.30;99.90;;;;;;5025559;28;20504;-75
2023/01/27 02:53:32;;;;;;;4.32;3.03;;;4.30;99.90;;;;;;5025654;28;20058;-75
2023/01/27 02:55:58;;;;;;;4.13;3.20;;;4.30;99.90;;;;;;5012056;28;20091;-76
2023/01/27 02:58:24;;;;;;;5.40;3.30;;;4.30;99.90;;;;;;5018537;28;20401;-76
2023/01/27 03:00:50;;;;;;;5.95;3.85;;;4.30;99.90;;;;;;5027606;28;20029;-78
2023/01/27 03:03:17;;;;;;;5.10;3.38;;;4.30;99.90;;;;;;5030818;28;20029;-76
2023/01/27 03:05:44;;;;;;;5.03;3.30;;;4.20;99.90;;;;;;5011821;28;20504;-76
2023/01/27 03:08:10;;;;;;;6.60;3.17;;;4.20;99.90;;;;;;5009694;28;20052;-77
2023/01/27 03:10:36;;;;;;;6.97;3.30;;;4.20;99.90;;;;;;5009157;28;20025;-76
2023/01/27 03:13:04;;;;;;;4.15;3.00;;;4.20;99.90;;;;;;5035552;28;20061;-76
2023/01/27 03:18:21;;;;;;;5.72;3.20;;;4.20;99.90;;;;;;5031360;28;20053;-76
2023/01/27 03:20:48;;;;;;;4.97;2.95;;;4.20;99.90;;;;;;5029572;28;20029;-76
2023/01/27 03:23:16;;;;;;;4.78;3.00;;;4.20;99.90;;;;;;5011194;28;20029;-76
2023/01/27 03:25:43;;;;;;;5.28;3.33;;;4.10;99.90;;;;;;5010151;28;20100;-77
2023/01/27 03:28:10;;;;;;;5.22;2.53;;;4.20;99.90;;;;;;5008857;28;20036;-77
2023/01/27 03:30:36;;;;;;;6.15;2.92;;;4.10;99.90;;;;;;5006860;28;20025;-76
2023/01/27 03:33:04;;;;;;;6.07;2.80;;;4.20;99.90;;;;;;5010240;28;20036;-80
2023/01/27 03:35:33;;;;;;;4.57;3.53;;;4.10;99.90;;;;;;5026528;28;20091;-77
2023/01/27 03:46:17;;;;;;;5.60;3.08;;;4.10;99.90;;;;;;5026216;28;20462;-76
2023/01/27 03:48:49;;;;;;;5.38;3.10;;;4.10;99.90;;;;;;5010463;28;20040;-75
2023/01/27 03:51:15;;;;;;;4.53;3.15;;;4.10;99.90;;;;;;5024168;28;20037;-76
2023/01/27 03:53:41;;;;;;;4.28;3.10;;;4.10;99.90;;;;;;5007359;28;20583;-76
2023/01/27 03:56:07;;;;;;;4.22;2.85;;;4.10;99.90;;;;;;5026952;28;20025;-76
2023/01/27 03:58:35;;;;;;;3.95;2.60;;;4.10;99.90;;;;;;5027326;28;20077;-75
2023/01/27 04:01:04;;;;;;;3.45;2.42;;;4.00;99.90;;;;;;5009401;28;20040;-75
2023/01/27 04:09:08;;;;;;;2.80;2.47;;;4.00;99.90;;;;;;5043140;28;20037;-76
2023/01/27 04:14:18;;;;;;;4.95;2.95;;;4.00;99.90;;;;;;5025219;28;20029;-76
2023/01/27 04:16:44;;;;;;;6.68;2.60;;;4.00;99.90;;;;;;5038505;28;20570;-83
2023/01/27 04:19:11;;;;;;;4.25;2.65;;;4.00;99.90;;;;;;5005011;28;20030;-76
2023/01/27 04:21:38;;;;;;;3.95;2.47;;;4.00;99.90;;;;;;5026784;28;20053;-78
2023/01/27 04:24:07;;;;;;;3.28;2.50;;;4.00;99.90;;;;;;4994140;28;20026;-76
2023/01/27 04:26:34;;;;;;;3.25;2.50;;;4.00;99.90;;;;;;5008327;28;20132;-77
2023/01/27 04:29:03;;;;;;;3.67;2.47;;;3.90;99.90;;;;;;5009441;28;20025;-80
2023/01/27 04:31:31;;;;;;;5.05;2.88;;;3.90;99.90;;;;;;5007317;28;20563;-77
2023/01/27 04:33:57;;;;;;;4.13;2.85;;;3.90;99.90;;;;;;5026497;28;20041;-78
2023/01/27 04:36:23;;;;;;;4.18;2.95;;;3.90;99.90;;;;;;5027379;28;20398;-76
2023/01/27 04:38:48;;;;;;;3.90;2.72;;;4.00;99.90;;;;;;5040232;28;20056;-77
2023/01/27 04:41:14;;;;;;;3.45;2.60;;;4.00;99.90;;;;;;5027355;28;20037;-81
2023/01/27 04:43:40;;;;;;;4.07;2.58;;;3.90;99.90;;;;;;5007150;28;20034;-77
2023/01/27 04:46:06;;;;;;;3.83;2.65;;;3.90;99.90;;;;;;5025384;28;20037;-76
2023/01/27 04:48:31;;;;;;;5.55;2.40;;;3.90;99.90;;;;;;5028104;28;20112;-77
2023/01/27 04:50:57;;;;;;;4.45;2.65;;;3.90;99.90;;;;;;5030288;28;20037;-78
2023/01/27 04:53:24;;;;;;;4.65;2.60;;;3.90;99.90;;;;;;5021645;28;20026;-79
2023/01/27 04:55:49;;;;;;;5.30;2.83;;;3.90;99.90;;;;;;5027122;28;20029;-78
2023/01/27 04:58:16;;;;;;;3.58;2.60;;;3.90;99.90;;;;;;5025373;28;20025;-75
2023/01/27 05:00:43;;;;;;;3.38;2.20;;;3.90;99.90;;;;;;5025183;28;20041;-76
2023/01/27 05:03:10;;;;;;;2.63;1.90;;;3.80;99.90;;;;;;5009041;28;20025;-76
2023/01/27 05:05:36;;;;;;;3.20;2.10;;;3.80;99.90;;;;;;5009363;28;20105;-82
2023/01/27 05:08:08;;;;;;;2.92;1.83;;;3.80;99.90;;;;;;4994809;28;20409;-76
2023/01/27 05:10:34;;;;;;;2.50;1.63;;;3.80;99.90;;;;;;5025362;28;20402;-76
2023/01/27 05:13:01;;;;;;;2.35;1.70;;;3.80;99.90;;;;;;5026407;28;20081;-76
2023/01/27 05:15:29;;;;;;;1.92;1.60;;;3.80;99.90;;;;;;5043006;28;20048;-76
2023/01/27 05:17:55;;;;;;;3.35;1.67;;;3.80;99.90;;;;;;5018220;28;20037;-75
2023/01/27 05:20:23;;;;;;;2.42;1.40;;;3.80;99.90;;;;;;5028830;28;20038;-75
2023/01/27 05:22:50;;;;;;;2.35;1.52;;;3.80;99.90;;;;;;5028895;28;20032;-76
2023/01/27 05:25:16;;;;;;;2.08;1.60;;;3.80;99.90;;;;;;5012177;28;20115;-77
2023/01/27 05:27:42;;;;;;;3.55;1.63;;;3.80;99.90;;;;;;5013145;28;20057;-77
2023/01/27 05:30:08;;;;;;;1.95;1.23;;;3.80;99.90;;;;;;5030327;28;20659;-77
2023/01/27 05:32:34;;;;;;;3.65;1.15;;;3.80;99.90;;;;;;5012053;28;20029;-76
2023/01/27 05:34:59;;;;;;;2.67;1.52;;;3.80;99.90;;;;;;5031098;28;20033;-76
2023/01/27 05:37:25;;;;;;;3.08;1.83;;;3.80;99.90;;;;;;4996245;28;20091;-77
2023/01/27 05:39:51;;;;;;;4.78;1.90;;;3.70;99.90;;;;;;5029336;28;20524;-77
2023/01/27 05:42:17;;;;;;;5.75;1.85;;;3.70;99.90;;;;;;5029147;28;20042;-77
2023/01/27 05:44:42;;;;;;;3.45;1.33;;;3.70;99.90;;;;;;5043907;28;20095;-76
2023/01/27 05:47:08;;;;;;;3.13;1.67;;;3.70;99.90;;;;;;5028270;28;20033;-77
2023/01/27 05:49:34;;;;;;;2.28;1.58;;;3.70;99.90;;;;;;5012374;28;20046;-76
2023/01/27 05:52:00;;;;;;;3.58;1.58;;;3.70;99.90;;;;;;5018364;28;20025;-76
2023/01/27 05:54:26;;;;;;;3.42;1.92;;;3.70;99.90;;;;;;5033054;28;20104;-76
2023/01/27 05:56:51;;;;;;;3.95;1.83;;;3.70;99.90;;;;;;5031318;28;20039;-76
2023/01/27 05:59:17;;;;;;;5.53;2.08;;;3.60;99.90;;;;;;5027648;28;20116;-75
2023/01/27 06:01:43;;;;;;;2.47;1.48;;;3.70;99.90;;;;;;5023321;28;20034;-76
2023/01/27 06:04:09;;;;;;;3.63;1.80;;;3.70;99.90;;;;;;5008226;28;20030;-76
2023/01/27 06:06:34;;;;;;;3.58;1.45;;;3.70;99.90;;;;;;5007779;28;20465;-76
2023/01/27 06:09:02;;;;;;;2.78;1.55;;;3.70;99.90;;;;;;5041567;28;20108;-79
2023/01/27 06:11:28;;;;;;;3.38;1.60;;;3.70;99.90;;;;;;5024279;28;20493;-76
2023/01/27 06:13:54;;;;;;;2.75;1.60;;;3.70;99.90;;;;;;5024686;28;20037;-76
2023/01/27 06:16:20;;;;;;;1.98;1.30;;;3.70;99.90;;;;;;5041423;28;20042;-78
2023/01/27 06:18:47;;;;;;;2.40;1.30;;;3.70;99.90;;;;;;5006448;28;20036;-78
2023/01/27 06:21:14;;;;;;;2.70;1.35;;;3.70;99.90;;;;;;5022982;28;20017;-76
2023/01/27 06:23:40;;;;;;;4.28;1.45;;;3.60;99.90;;;;;;5024761;28;20025;-77
2023/01/27 06:26:08;;;;;;;2.92;1.50;;;3.60;99.90;;;;;;5008366;28;20413;-76
2023/01/27 06:28:35;;;;;;;3.75;1.70;;;3.50;99.90;;;;;;5024352;28;20272;-79
2023/01/27 06:31:19;;;;;;;4.47;1.75;;;3.50;99.90;;;;;;5012968;28;20500;-75
2023/01/27 06:33:45;;;;;;;2.58;1.33;;;3.60;99.90;;;;;;5019336;28;20025;-76
2023/01/27 06:36:14;;;;;;;4.10;1.73;;;3.50;99.90;;;;;;5010151;28;20032;-76
2023/01/27 06:38:41;;;;;;;5.25;1.98;;;3.60;99.90;;;;;;5026440;28;20033;-76
2023/01/27 06:41:07;;;;;;;3.65;1.50;;;3.60;99.90;;;;;;4986540;28;20022;-76
2023/01/27 06:43:33;;;;;;;4.88;1.60;;;3.70;99.90;;;;;;5027339;28;20033;-77
2023/01/27 06:45:59;;;;;;;3.35;1.60;;;3.60;99.90;;;;;;5005862;28;20037;-76
2023/01/27 06:48:26;;;;;;;4.07;1.70;;;3.60;99.90;;;;;;5040655;28;20115;-76
2023/01/27 06:50:53;;;;;;;3.92;1.52;;;3.60;99.90;;;;;;5005007;28;20132;-76
2023/01/27 06:53:19;;;;;;;4.95;2.13;;;3.60;99.90;;;;;;5007333;28;20087;-76
2023/01/27 06:55:45;;;;;;;6.20;1.95;;;3.60;99.90;;;;;;5006708;28;20034;-77
2023/01/27 06:58:12;;;;;;;2.97;2.00;;;3.60;99.90;;;;;;5027007;28;20445;-78
2023/01/27 07:00:39;;;;;;;7.35;2.10;;;3.60;99.90;;;;;;5022619;28;20025;-76
2023/01/27 07:03:05;;;;;;;2.78;1.70;;;3.60;99.90;;;;;;5025257;28;20028;-77
2023/01/27 07:05:32;;;;;;;3.33;2.00;;;3.60;99.90;;;;;;5012338;28;20033;-77
2023/01/27 07:07:59;;;;;;;3.33;2.15;;;3.60;99.90;;;;;;5011223;28;20164;-76
2023/01/27 07:10:26;;;;;;;4.10;2.13;;;3.60;99.90;;;;;;5025002;28;20033;-77
2023/01/27 07:12:52;;;;;;;4.85;2.08;;;3.60;99.90;;;;;;5024933;28;20026;-77
2023/01/27 07:15:17;;;;;;;3.22;2.17;;;3.60;99.90;;;;;;5025800;28;20560;-76
2023/01/27 07:17:43;;;;;;;6.20;2.72;;;3.60;99.90;;;;;;5006219;28;20038;-76
2023/01/27 07:20:12;;;;;;;3.75;2.60;;;3.60;99.90;;;;;;5026248;28;20095;-75
2023/01/27 07:22:38;;;;;;;4.65;2.08;;;3.60;99.90;;;;;;5009148;28;20030;-78
2023/01/27 07:25:07;;;;;;;4.97;2.70;;;3.60;99.90;;;;;;5030313;28;20033;-76
2023/01/27 07:27:33;;;;;;;5.20;2.25;;;3.50;99.90;;;;;;5029565;28;20140;-77
2023/01/27 07:29:58;;;;;;;2.88;1.98;;;3.50;99.90;;;;;;5027751;28;20462;-75
2023/01/27 07:32:24;;;;;;;7.15;2.20;;;3.50;99.90;;;;;;5022469;28;20045;-75
2023/01/27 07:34:50;;;;;;;3.80;2.03;;;3.50;99.90;;;;;;5006398;28;20026;-76
2023/01/27 07:37:16;;;;;;;4.00;1.70;;;3.50;99.90;;;;;;5021975;28;20054;-77
2023/01/27 07:39:41;;;;;;;4.55;2.03;;;3.50;99.90;;;;;;5035853;28;20036;-77
2023/01/27 07:42:08;;;;;;;6.70;1.92;;;3.40;99.90;;;;;;5022915;28;20108;-77
2023/01/27 07:44:33;;;;;;;6.65;2.25;;;3.40;99.90;;;;;;5023107;28;20024;-77
2023/01/27 07:46:59;;;;;;;3.38;1.58;;;3.50;99.90;;;;;;5024917;28;20043;-77
2023/01/27 07:49:25;;;;;;;3.47;2.03;;;3.50;99.90;;;;;;5023303;28;20029;-76
2023/01/27 07:51:51;;;;;;;2.40;1.60;;;3.50;99.90;;;;;;5018943;28;20156;-77
2023/01/27 07:54:17;;;;;;;3.88;1.42;;;3.50;99.90;;;;;;5040463;28;20137;-76
2023/01/27 07:56:42;;;;;;;3.47;2.05;;;3.50;99.90;;;;;;5026100;28;20091;-76
2023/01/27 07:59:09;;;;;;;5.40;2.13;;;3.50;99.90;;;;;;5040920;28;20476;-77
2023/01/27 08:01:36;;;;;;;5.28;1.90;;;3.50;99.90;;;;;;5020082;28;20076;-76
2023/01/27 08:04:02;;;;;;;4.82;2.00;;;3.40;99.90;;;;;;5006534;28;20041;-75
2023/01/27 08:06:27;;;;;;;2.95;1.92;;;3.50;99.90;;;;;;5042157;28;20025;-77
2023/01/27 08:08:53;;;;;;;3.70;2.03;;;3.50;99.90;;;;;;5028010;28;20036;-75
2023/01/27 08:11:19;;;;;;;4.90;1.95;;;3.50;99.90;;;;;;5008811;28;20049;-74
2023/01/27 08:13:47;;;;;;;4.53;1.73;;;3.50;99.90;;;;;;5022921;28;20152;-77
2023/01/27 08:16:14;;;;;;;5.00;1.65;;;3.50;99.90;;;;;;5034572;28;20033;-77
2023/01/27 08:18:40;;;;;;;3.88;1.63;;;3.50;99.90;;;;;;5004735;28;21730;-78
2023/01/27 08:21:09;;;;;;;4.70;1.58;;;3.60;99.90;;;;;;5024250;28;20042;-77
2023/01/27 08:23:35;;;;;;;2.22;1.55;;;3.50;99.90;;;;;;4987217;28;20114;-76
2023/01/27 08:26:03;;;;;;;4.70;1.80;;;3.50;99.90;;;;;;5040553;28;20409;-76
2023/01/27 08:28:31;;;;;;;3.28;1.88;;;3.50;99.90;;;;;;5024154;28;20033;-76
2023/01/27 08:31:14;;;;;;;5.13;2.30;;;3.50;99.90;;;;;;5025688;28;20324;-74
2023/01/27 08:33:41;;;;;;;3.45;1.70;;;3.60;99.90;;;;;;5008779;28;20025;-75
2023/01/27 08:36:13;;;;;;;4.22;1.73;;;3.60;99.90;;;;;;5008450;28;20029;-75
2023/01/27 08:38:42;;;;;;;5.00;1.65;;;3.60;99.90;;;;;;4999041;28;20029;-77
2023/01/27 08:41:29;;;;;;;2.75;1.55;;;3.60;99.90;;;;;;5021653;28;20037;-74
2023/01/27 08:43:54;;;;;;;4.97;1.60;;;3.60;99.90;;;;;;5023355;28;20025;-75
2023/01/27 08:46:21;;;;;;;7.78;1.60;;;3.60;99.90;;;;;;5001056;28;20036;-73
2023/01/27 08:48:49;;;;;;;4.63;1.98;;;3.60;99.90;;;;;;5002704;28;20029;-77
2023/01/27 08:51:14;;;;;;;4.80;2.08;;;3.60;99.90;;;;;;5022081;28;20516;-76
2023/01/27 08:53:41;;;;;;;4.97;2.08;;;3.60;99.90;;;;;;5020777;28;20051;-75
2023/01/27 08:56:14;;;;;;;2.95;1.73;;;3.60;99.90;;;;;;5021203;28;20037;-76
2023/01/27 08:58:40;;;;;;;5.75;1.98;;;3.60;99.90;;;;;;5023813;28;20025;-78
2023/01/27 09:01:08;;;;;;;4.38;2.10;;;3.50;99.90;;;;;;5005404;28;20700;-78
2023/01/27 09:03:34;;;;;;;5.65;2.33;;;3.50;99.90;;;;;;5023794;28;20100;-79
2023/01/27 09:06:06;;;;;;;4.93;1.80;;;3.70;99.90;;;;;;5040440;28;20033;-76
2023/01/27 09:08:32;;;;;;;3.67;2.20;;;3.70;99.90;;;;;;4994219;28;20397;-76
2023/01/27 09:10:59;;;;;;;3.65;1.55;;;3.60;99.90;;;;;;5022574;28;20034;-76
2023/01/27 09:13:24;;;;;;;3.97;1.88;;;3.60;99.90;;;;;;5038968;28;20029;-77
2023/01/27 09:15:53;;;;;;;6.65;2.00;;;3.70;99.90;;;;;;4990882;28;20393;-77
2023/01/27 09:18:22;;;;;;;3.15;2.00;;;3.70;99.90;;;;;;5006795;28;20108;-76
2023/01/27 09:20:49;;;;;;;3.33;1.67;;;3.70;99.90;;;;;;5009414;28;20026;-76
2023/01/27 09:23:16;;;;;;;6.45;2.42;;;3.70;99.90;;;;;;5025943;28;20030;-75
2023/01/27 09:25:43;;;;;;;2.42;1.85;;;3.60;99.90;;;;;;5010094;28;20056;-75
2023/01/27 09:28:15;;;;;;;5.65;2.30;;;3.60;99.90;;;;;;5027097;28;20021;-76
2023/01/27 09:30:44;;;;;;;3.92;1.75;;;3.50;99.90;;;;;;5024848;28;20674;-76
2023/01/27 09:33:15;;;;;;;3.15;2.15;;;3.60;99.90;;;;;;5022719;28;20025;-74
2023/01/27 09:35:47;;;;;;;2.65;1.90;;;3.40;99.90;;;;;;5011589;28;20057;-75
2023/01/27 09:38:18;;;;;;;2.50;1.85;;;3.50;99.90;;;;;;5031983;28;20032;-76
2023/01/27 09:40:56;;;;;;;;;;;3.40;99.90;;;;;;5013885;28;20038;-75
2023/01/27 09:43:33;;;;;;;4.43;1.90;;;3.40;99.90;;;;;;5044982;28;19920;-77
2023/01/27 09:46:24;;;;;;;3.90;1.80;;;3.40;99.90;;;;;;5043496;28;20116;-78
2023/01/27 09:49:11;;;;;;;3.25;2.08;;;3.40;99.90;;;;;;5011659;28;20029;-79
2023/01/27 09:51:37;;;;;;;4.22;1.98;;;3.50;99.90;;;;;;5027896;28;20033;-76
2023/01/27 09:54:17;;;;;;;2.25;2.00;;;3.40;99.90;;;;;;5031384;28;20025;-78
2023/01/27 09:57:37;;;;;;;3.53;1.87;;;3.40;99.90;;;;;;5031935;28;20044;-77
2023/01/27 10:00:30;;;;;;;3.40;2.05;;;3.50;99.90;;;;;;4955997;28;20373;-77
2023/01/27 10:03:34;;;;;;;4.75;2.58;;;3.50;99.90;;;;;;5017058;28;20060;-75
2023/01/27 10:06:08;;;;;;;4.10;1.92;;;3.50;99.90;;;;;;5039017;28;20114;-77
2023/01/27 10:08:58;;;;;;;7.72;2.55;;;3.50;99.90;;;;;;5021799;28;20409;-75
2023/01/27 10:11:54;;;;;;;3.67;1.90;;;3.50;99.90;;;;;;5018122;28;20064;-80
2023/01/27 10:14:48;;;;;;;5.85;1.63;;;3.50;99.90;;;;;;5039569;28;20025;-77
2023/01/27 10:17:30;;;;;;;4.10;2.00;;;3.50;99.90;;;;;;4990662;28;20046;-76
2023/01/27 10:20:07;;;;;;;5.70;2.10;;;3.50;99.90;;;;;;5019387;28;20029;-78
2023/01/27 10:23:01;;;;;;;3.10;2.00;;;3.60;99.90;;;;;;5026848;28;20029;-77
2023/01/27 10:25:36;;;;;;;6.95;2.40;;;3.60;99.90;;;;;;5026119;28;20037;-75
2023/01/27 10:28:17;;;;;;;4.25;1.95;;;3.60;99.90;;;;;;5026615;28;20045;-75
2023/01/27 10:30:59;;;;;;;;;;;3.50;99.90;;;;;;5040171;28;20102;-76
2023/01/27 10:33:43;;;;;;;5.07;1.80;;;3.60;99.90;;;;;;5007237;28;19963;-75
2023/01/27 10:36:54;;;;;;;6.88;2.53;;;3.50;99.90;;;;;;5025706;28;20037;-75
2023/01/27 10:39:20;;;;;;;;;;;3.50;99.90;;;;;;5024379;28;20065;-76
2023/01/27 10:42:17;;;;;;;7.55;2.55;;;3.60;99.90;;;;;;5023909;28;20010;-75
2023/01/27 10:44:53;;;;;;;3.30;1.65;;;3.60;99.90;;;;;;5005283;28;20035;-74
2023/01/27 10:47:41;;;;;;;6.35;2.08;;;3.70;99.90;;;;;;5007055;28;20017;-73
2023/01/27 10:50:14;;;;;;;3.72;1.95;;;3.60;99.90;;;;;;4999748;28;20770;-74
2023/01/27 10:53:16;;;;;;;6.88;2.80;;;3.60;99.90;;;;;;5008346;28;20052;-74
2023/01/27 10:55:56;;;;;;;4.32;1.98;;;3.60;99.90;;;;;;5016446;28;20128;-73
2023/01/27 10:58:38;;;;;;;6.90;1.80;;;3.70;99.90;;;;;;5024119;28;20029;-73
2023/01/27 11:01:06;;;;;;;3.50;1.70;;;3.80;99.90;;;;;;5024154;28;20021;-73
2023/01/27 11:03:46;;;;;;;3.53;1.60;;;3.80;99.90;;;;;;5009186;28;20040;-79
2023/01/27 11:06:23;;;;;;;7.53;1.83;;;3.80;99.90;;;;;;5036138;28;20025;-74
2023/01/27 11:08:57;;;;;;;4.82;1.85;;;3.80;99.90;;;;;;5008525;28;20034;-75
2023/01/27 11:11:43;;;;;;;7.03;2.03;;;3.80;99.90;;;;;;5026279;28;20036;-73
2023/01/27 11:14:31;;;;;;;2.65;1.80;;;3.80;99.90;;;;;;4991877;28;20524;-74
2023/01/27 11:17:13;;;;;;;3.55;2.00;;;3.70;99.90;;;;;;5002533;28;20538;-75
2023/01/27 11:19:53;;;;;;;7.35;2.30;;;3.70;99.90;;;;;;5037915;28;20044;-73
2023/01/27 11:22:42;;;;;;;5.85;2.10;;;3.70;99.90;;;;;;5024431;28;20033;-73
2023/01/27 11:25:39;;;;;;;5.47;2.40;;;3.70;99.90;;;;;;5025555;28;20029;-74
2023/01/27 11:28:23;;;;;;;6.65;2.20;;;3.70;99.90;;;;;;5034909;28;20030;-73
2023/01/27 11:31:34;;;;;;;4.47;2.35;;;3.70;99.90;;;;;;5020598;28;20057;-73
2023/01/27 11:34:12;;;;;;;5.40;1.70;;;3.70;99.90;;;;;;5038112;28;20022;-74
2023/01/27 11:36:38;;;;;;;3.92;1.85;;;3.60;99.90;;;;;;5018689;28;20048;-75
2023/01/27 11:39:05;;;;;;;5.70;2.00;;;3.70;99.90;;;;;;5034123;28;20493;-75
2023/01/27 11:41:47;;;;;;;3.95;1.60;;;3.70;99.90;;;;;;5008836;28;20037;-76
2023/01/27 11:44:23;;;;;;;3.33;1.08;;;3.60;99.90;;;;;;5013345;28;20041;-75
2023/01/27 11:46:50;;;;;;;3.50;1.17;;;3.60;99.90;;;;;;5022467;28;20087;-74
2023/01/27 11:49:22;;;;;;;3.30;0.93;;;3.60;99.90;;;;;;5022245;28;20937;-75
2023/01/27 11:51:48;;;;;;;3.40;1.17;;;3.60;99.90;;;;;;5023785;28;20048;-77
2023/01/27 11:54:24;;;;;;;3.20;1.30;;;3.60;99.90;;;;;;5025688;28;20029;-75
2023/01/27 11:56:50;;;;;;;4.00;1.05;;;3.70;99.90;;;;;;5008493;28;20033;-77
2023/01/27 11:59:24;;;;;;;2.75;1.75;;;3.70;99.90;;;;;;5025290;28;20033;-76
2023/01/27 12:02:05;;;;;;;3.13;0.93;;;3.80;99.90;;;;;;5005727;28;20025;-77
2023/01/27 12:04:37;;;;;;;2.38;0.82;;;3.80;99.90;;;;;;5016590;28;20037;-75
2023/01/27 12:07:34;;;;;;;1.40;1.00;;;4.00;99.90;;;;;;5019498;28;20043;-74
2023/01/27 12:09:59;;;;;;;1.98;0.80;;;4.00;99.90;;;;;;5019434;28;20124;-73
2023/01/27 12:12:26;;;;;;;5.68;1.10;;;4.00;99.90;;;;;;5005481;28;20040;-74
2023/01/27 12:14:55;;;;;;;3.08;0.88;;;3.90;99.90;;;;;;5007349;28;20037;-73
2023/01/27 12:17:34;;;;;;;2.55;1.08;;;3.90;99.90;;;;;;4999262;28;20046;-76
2023/01/27 12:20:20;;;;;;;4.57;1.33;;;3.90;99.90;;;;;;5038516;28;20128;-76
2023/01/27 12:22:52;;;;;;;6.25;1.27;;;4.00;99.90;;;;;;5008269;28;20041;-76
2023/01/27 12:25:23;;;;;;;2.30;0.80;;;4.00;99.90;;;;;;4998263;28;20029;-75
2023/01/27 12:27:51;;;;;;;;;;;3.90;99.90;;;;;;5002297;28;20104;-77
2023/01/27 12:30:25;;;;;;;5.43;1.15;;;3.90;99.90;;;;;;5025370;28;19955;-75
2023/01/27 12:32:51;;;;;;;3.42;1.48;;;3.80;99.90;;;;;;5022240;28;21114;-76
2023/01/27 12:35:17;;;;;;;5.07;1.52;;;3.70;99.90;;;;;;5014494;28;20485;-74
2023/01/27 12:37:43;;;;;;;6.63;1.13;;;3.70;99.90;;;;;;5001230;28;20040;-75
2023/01/27 12:40:19;;;;;;;4.95;1.17;;;3.70;99.90;;;;;;5022926;28;20030;-75
2023/01/27 12:43:11;;;;;;;2.53;0.90;;;3.60;99.90;;;;;;4994710;28;20032;-76
2023/01/27 12:45:37;;;;;;;2.47;0.80;;;3.60;99.90;;;;;;5017793;28;20078;-79
2023/01/27 12:48:12;;;;;;;5.82;1.08;;;3.70;99.90;;;;;;5000713;28;20572;-75
2023/01/27 12:50:52;;;;;;;2.17;1.17;;;3.70;99.90;;;;;;5027347;28;20481;-75
2023/01/27 12:53:26;;;;;;;4.30;0.98;;;3.70;99.90;;;;;;5011662;28;20033;-75
2023/01/27 12:56:11;;;;;;;1.77;0.93;;;3.70;99.90;;;;;;5022798;28;20168;-78
2023/01/27 12:58:42;;;;;;;2.47;0.93;;;3.70;99.90;;;;;;5013097;28;20029;-75
2023/01/27 13:01:42;;;;;;;3.00;0.93;;;3.70;99.90;;;;;;5026883;28;20123;-75
2023/01/27 13:04:16;;;;;;;5.00;1.20;;;3.70;99.90;;;;;;5010872;28;20033;-74
2023/01/27 13:07:03;;;;;;;5.05;1.00;;;3.70;99.90;;;;;;5028234;28;20033;-76
2023/01/27 13:09:57;;;;;;;2.92;1.50;;;3.90;99.90;;;;;;5023064;28;20453;-74
2023/01/27 13:12:26;;;;;;;4.00;0.95;;;3.70;99.90;;;;;;5007572;28;20033;-74
2023/01/27 13:15:07;;;;;;;0.85;0.63;;;3.70;99.90;;;;;;4982198;28;20702;-76
2023/01/27 13:17:33;;;;;;;;;;;3.60;99.90;;;;;;5018283;28;20698;-75
2023/01/27 13:20:07;;;;;;;3.35;0.73;;;3.60;99.90;;;;;;5024119;28;19917;-74
2023/01/27 13:22:41;;;;;;;1.83;0.60;;;3.70;99.90;;;;;;5025114;28;20105;-76
2023/01/27 13:25:15;;;;;;;4.32;0.82;;;3.80;99.90;;;;;;5009361;28;20470;-75
2023/01/27 13:27:44;;;;;;;3.17;0.70;;;3.80;99.90;;;;;;5010140;28;20049;-75
2023/01/27 13:30:30;;;;;;;6.78;0.90;;;3.80;99.90;;;;;;4996314;28;20037;-75
2023/01/27 13:33:07;;;;;;;2.85;0.70;;;3.70;99.90;;;;;;5002923;28;20041;-75
2023/01/27 13:35:47;;;;;;;4.65;0.70;;;3.60;99.90;;;;;;5010971;28;20041;-78
2023/01/27 13:38:52;;;;;;;5.63;0.88;;;3.60;99.90;;;;;;5015902;28;20068;-75
2023/01/27 13:41:27;;;;;;;2.20;0.80;;;3.70;99.90;;;;;;5003365;28;20107;-77
2023/01/27 13:44:04;;;;;;;4.35;1.15;;;3.60;99.90;;;;;;5045003;28;20156;-74
2023/01/27 13:46:37;;;;;;;5.15;0.88;;;3.60;99.90;;;;;;5012364;28;20036;-75
2023/01/27 13:49:24;;;;;;;2.00;0.88;;;3.70;99.90;;;;;;5020539;28;20037;-76